This is the latest recevied weather packets stored in our database for station/object N4OGP-WX. If no packets are shown the sender has not sent any weather packets the latest 10 day(s).
| Time | Temp. | Humidity | Pressure | Rain* | Wind** | Luminosity | Snow |
|---|---|---|---|---|---|---|---|
| 1778300399 | 21.11° C | 92% | 1008.8 hPa | 0 mm | - | - | - |
| 1778300339 | 23.89° C | 42% | 1020.4 hPa | 0 mm | - | - | - |
| 1778300279 | 21.11° C | 91% | 1008.7 hPa | 0 mm | - | - | - |
| 1778300219 | 21.11° C | 91% | 1008.6 hPa | 0 mm | - | - | - |
| 1778300159 | 23.89° C | 42% | 1020.4 hPa | 0 mm | - | - | - |
| 1778300099 | 21.11° C | 91% | 1008.6 hPa | 0 mm | - | - | - |
| 1778300039 | 21.11° C | 91% | 1008.7 hPa | 0 mm | - | - | - |
| 1778299979 | 21.11° C | 92% | 1008.6 hPa | 0 mm | - | - | - |
| 1778299919 | 23.89° C | 42% | 1020.4 hPa | 0 mm | - | - | - |
| 1778299829 | 21.11° C | 92% | 1008.6 hPa | 0 mm | - | - | - |
| 1778299769 | 21.11° C | 92% | 1008.6 hPa | 0 mm | - | - | - |
| 1778299709 | 21.11° C | 92% | 1008.5 hPa | 0 mm | - | - | - |
| 1778299649 | 21.11° C | 92% | 1008.5 hPa | 0 mm | - | - | - |
| 1778299559 | 21.11° C | 92% | 1008.3 hPa | 0 mm | - | - | - |
| 1778299499 | 23.89° C | 42% | 1020.4 hPa | 0 mm | - | - | - |
| 1778299439 | 21.11° C | 92% | 1008.2 hPa | 0 mm | - | - | - |
| 1778299349 | 23.89° C | 42% | 1020.4 hPa | 0 mm | - | - | - |
| 1778299289 | 23.89° C | 42% | 1020.4 hPa | 0 mm | - | - | - |
| 1778299229 | 23.89° C | 42% | 1020.4 hPa | 0 mm | - | - | - |
| 1778299169 | 23.89° C | 42% | 1020.4 hPa | 0 mm | - | - | - |
| 1778299109 | 23.89° C | 42% | 1020.4 hPa | 0 mm | - | - | - |
| 1778299049 | 23.89° C | 42% | 1020.4 hPa | 0 mm | - | - | - |
| 1778298959 | 23.89° C | 42% | 1020.4 hPa | 0 mm | - | - | - |
| 1778298899 | 23.89° C | 42% | 1020.4 hPa | 0 mm | - | - | - |
| 1778298839 | 21.11° C | 93% | 1008.6 hPa | 0 mm | - | - | - |
* Rain latest hour (hover to see other rain measurements)
** Current wind speed in m/s (hover to see current wind gust speed)